Aeroporto :
LOGIN :

Iscrizione | Disclaimer

   EN    FR    IT 

 










Sommario :    VFR   VFR Marginale   IFR   IFR Intensivo   IFR Molto Intensivo
Visibilità : 
Base nubi : 
>= 8 km
>= 3000ft
5 / 8 km
1000 / 3000 ft
1500m / 5 km
500 / 1000 ft
800 / 1500m
200 / 500 ft
< 800m
< 200 ft
Simboli :   Temporali  Nebbia  Neve Forte  Precipitazioni Forti  Vento > 20 kt
SIGMETs :   Varie  Temporali  Ghiacco  Turbolenza  Onda orograficha  Ceneri Vulcaniche






- Altitudine del aeroporto : 505 ft
- Codice IATA : SXB


LFST - Strasbourg

ULTIMO METAR :
  • 170700Z AUTO VRB01KT 9999 OVC054 13/12 Q1017 NOSIG

METARs OBSOLETI :
  • 170630Z AUTO VRB01KT 9999 OVC054 12/11 Q1017 NOSIG
  • 170600Z AUTO 32001KT 9999 SCT056 11/10 Q1017 NOSIG
  • 170530Z AUTO 31002KT CAVOK 11/10 Q1017 NOSIG
  • 170500Z AUTO 32005KT CAVOK 11/10 Q1017 TEMPO 0700 BCFG
  • 170430Z AUTO 33005KT 9999 FEW052 12/11 Q1017 TEMPO 0700 BCFG

TAF TAF LFST
Valido dal 17 a 06 ore il 18 a 06 ore UTC


170500Z 1706/1806 36005KT 9999 FEW035 SCT050
PROB40 1803/1806 4000 BR



MetMap, La meteo Aeronautica in un colpo d'occhio ! - Copyright ORBIFLY Dicembre 2007 - Disclaimer

ORBIFLY MET'MAP TEAM :

Programmazione e sviluppo : Alexandra Zaïnal
Concezione : Baudouin d'Aumeries
Aiuto per la programmazione : Marc-Olivier Méhu
Supporto tecnico e logistico : Manuel Goepfert
Aiuto per la traduzione : Arnaldo La Scala

Contatto : metmap@orbifly.com




FONTI E CREDITI :

   NOAA